createdAt,value
2023-01-18T00:00:40.233Z,22.73
2023-01-18T00:03:11.359Z,24.90
2023-01-18T00:05:43.899Z,21.43
2023-01-18T00:08:12.641Z,30.95
2023-01-18T00:10:40.047Z,26.65
2023-01-18T00:13:06.869Z,19.92
2023-01-18T00:15:34.986Z,17.45
2023-01-18T00:18:02.976Z,27.70
2023-01-18T00:20:30.763Z,27.77
2023-01-18T00:23:00.222Z,23.52
2023-01-18T00:25:28.559Z,26.58
2023-01-18T00:27:55.761Z,27.35
2023-01-18T00:30:27.051Z,26.25
2023-01-18T00:32:58.893Z,27.10
2023-01-18T00:35:26.190Z,30.27
2023-01-18T00:37:53.881Z,21.27
2023-01-18T00:40:23.638Z,18.08
2023-01-18T00:43:08.834Z,17.55
2023-01-18T00:45:35.615Z,16.83
2023-01-18T00:48:02.709Z,18.95
2023-01-18T00:50:29.683Z,20.05
2023-01-18T00:52:58.613Z,22.13
2023-01-18T00:55:26.411Z,22.13
2023-01-18T00:57:53.350Z,17.60
2023-01-18T01:00:24.281Z,26.67
2023-01-18T01:02:51.726Z,25.03
2023-01-18T01:05:44.582Z,22.77
2023-01-18T01:08:17.424Z,14.98
2023-01-18T01:10:49.822Z,14.85
2023-01-18T01:13:38.484Z,17.13
2023-01-18T01:16:29.045Z,17.40
2023-01-18T01:19:15.452Z,17.63
2023-01-18T01:22:00.990Z,16.77
2023-01-18T01:24:46.489Z,14.45
2023-01-18T01:27:13.886Z,15.15
2023-01-18T01:29:40.943Z,13.63
2023-01-18T01:32:07.980Z,17.42
2023-01-18T01:34:34.889Z,16.10
2023-01-18T01:37:02.969Z,14.30
2023-01-18T01:39:30.481Z,15.63
2023-01-18T01:41:57.264Z,16.65
2023-01-18T01:44:24.469Z,17.33
2023-01-18T01:46:52.763Z,18.30
2023-01-18T01:49:40.072Z,16.08
2023-01-18T01:52:14.771Z,16.48
2023-01-18T01:54:53.687Z,15.95
2023-01-18T01:57:46.748Z,16.15
2023-01-18T02:00:23.099Z,14.77
2023-01-18T02:03:03.345Z,13.32
2023-01-18T02:05:33.907Z,14.15
2023-01-18T02:08:03.192Z,13.45
2023-01-18T02:10:30.796Z,14.07
2023-01-18T02:12:59.117Z,16.83
2023-01-18T02:15:36.563Z,14.50
2023-01-18T02:18:10.808Z,14.43
2023-01-18T02:21:08.586Z,12.70
2023-01-18T02:24:16.691Z,15.13
2023-01-18T02:27:05.850Z,15.27
2023-01-18T02:29:47.456Z,14.82
2023-01-18T02:32:27.535Z,12.15
2023-01-18T02:35:14.025Z,10.93
2023-01-18T02:37:40.637Z,13.05
2023-01-18T02:40:23.889Z,16.15
2023-01-18T02:43:09.198Z,12.68
2023-01-18T02:46:04.717Z,12.50
2023-01-18T02:48:41.499Z,14.13
2023-01-18T02:51:08.643Z,13.20
2023-01-18T02:53:41.590Z,12.40
2023-01-18T02:56:16.705Z,11.52
2023-01-18T02:58:57.369Z,10.40
2023-01-18T03:01:44.118Z,12.82
2023-01-18T03:04:28.953Z,18.50
2023-01-18T03:07:10.551Z,13.23
2023-01-18T03:09:38.321Z,12.95
2023-01-18T03:12:26.875Z,12.07
2023-01-18T03:15:08.528Z,10.77
2023-01-18T03:17:44.646Z,10.18
2023-01-18T03:20:18.401Z,12.55
2023-01-18T03:23:30.010Z,14.45
2023-01-18T03:25:59.224Z,15.80
2023-01-18T03:28:51.582Z,14.38
2023-01-18T03:31:58.919Z,12.95
2023-01-18T03:35:07.993Z,10.07
2023-01-18T03:37:41.064Z,11.70
2023-01-18T03:40:18.241Z,15.05
2023-01-18T03:43:03.540Z,11.32
2023-01-18T03:45:37.886Z,12.90
2023-01-18T03:48:07.119Z,11.75
2023-01-18T03:51:08.238Z,12.80
2023-01-18T03:53:40.463Z,8.85
2023-01-18T03:56:23.773Z,9.77
2023-01-18T03:58:56.321Z,9.82
2023-01-18T04:01:23.424Z,10.80
2023-01-18T04:03:50.201Z,12.13
2023-01-18T04:06:17.061Z,9.43
2023-01-18T04:08:43.743Z,9.88
2023-01-18T04:11:10.471Z,10.80
2023-01-18T04:13:37.145Z,10.65
2023-01-18T04:16:04.837Z,8.20
2023-01-18T04:18:31.688Z,8.15
2023-01-18T04:20:58.827Z,10.52
2023-01-18T04:23:25.868Z,10.45
2023-01-18T04:25:52.496Z,7.90
2023-01-18T04:28:25.241Z,9.73
2023-01-18T04:30:53.263Z,9.30
2023-01-18T04:33:20.645Z,10.25
2023-01-18T04:35:48.185Z,7.88
2023-01-18T04:38:15.578Z,9.35
2023-01-18T04:40:42.835Z,9.25
2023-01-18T04:43:09.539Z,10.70
2023-01-18T04:45:36.372Z,9.23
2023-01-18T04:48:03.246Z,10.65
2023-01-18T04:50:30.171Z,9.45
2023-01-18T04:52:58.168Z,7.05
2023-01-18T04:55:25.193Z,8.18
2023-01-18T04:57:57.732Z,10.57
2023-01-18T05:00:24.612Z,9.77
2023-01-18T05:02:51.373Z,9.73
2023-01-18T05:05:18.231Z,10.35
2023-01-18T05:07:44.909Z,9.50
2023-01-18T05:10:12.350Z,6.63
2023-01-18T05:12:39.174Z,9.13
2023-01-18T05:15:06.252Z,9.43
2023-01-18T05:17:35.150Z,8.77
2023-01-18T05:20:12.557Z,9.20
2023-01-18T05:22:39.342Z,9.40
2023-01-18T05:25:06.795Z,9.02
2023-01-18T05:27:34.075Z,11.38
2023-01-18T05:30:01.914Z,10.15
2023-01-18T05:32:28.662Z,9.20
2023-01-18T05:34:55.250Z,9.85
2023-01-18T05:37:21.900Z,9.13
2023-01-18T05:39:48.534Z,12.98
2023-01-18T05:42:15.191Z,13.65
2023-01-18T05:44:41.818Z,12.73
2023-01-18T05:47:08.716Z,9.35
2023-01-18T05:49:35.333Z,10.63
2023-01-18T05:52:04.192Z,9.68
2023-01-18T05:54:30.853Z,12.02
2023-01-18T05:56:58.303Z,11.13
2023-01-18T05:59:25.044Z,12.40
2023-01-18T06:01:51.801Z,11.68
2023-01-18T06:04:18.628Z,10.55
2023-01-18T06:06:45.286Z,14.60
2023-01-18T06:09:11.989Z,10.93
2023-01-18T06:11:38.683Z,14.77
2023-01-18T06:14:05.627Z,14.75
2023-01-18T06:16:32.417Z,11.90
2023-01-18T06:18:59.070Z,13.52
2023-01-18T06:21:26.227Z,14.00
2023-01-18T06:23:52.861Z,15.43
2023-01-18T06:26:19.594Z,16.70
2023-01-18T06:28:46.251Z,17.85
2023-01-18T06:31:12.922Z,13.45
2023-01-18T06:33:39.797Z,15.57
2023-01-18T06:36:06.923Z,15.15
2023-01-18T06:38:33.903Z,13.73
2023-01-18T06:41:00.553Z,10.82
2023-01-18T06:43:27.213Z,13.20
2023-01-18T06:45:55.503Z,13.52
2023-01-18T06:48:24.136Z,11.10
2023-01-18T06:50:54.416Z,17.70
2023-01-18T06:53:21.346Z,18.85
2023-01-18T06:55:59.034Z,19.85
2023-01-18T06:58:26.684Z,13.68
2023-01-18T07:00:58.070Z,14.35
2023-01-18T07:03:25.807Z,15.70
2023-01-18T07:05:58.704Z,15.90
2023-01-18T07:08:26.893Z,15.23
2023-01-18T07:10:54.450Z,12.02
2023-01-18T07:13:22.040Z,16.27
2023-01-18T07:16:00.768Z,11.95
2023-01-18T07:18:29.527Z,12.07
2023-01-18T07:21:03.478Z,12.85
2023-01-18T07:23:30.361Z,12.07
2023-01-18T07:26:08.595Z,17.58
2023-01-18T07:28:36.269Z,15.27
2023-01-18T07:31:04.003Z,14.77
2023-01-18T07:33:31.231Z,12.50
2023-01-18T07:35:58.448Z,10.57
2023-01-18T07:38:25.907Z,12.27
2023-01-18T07:41:02.920Z,18.60
2023-01-18T07:43:31.762Z,13.95
2023-01-18T07:45:59.421Z,16.30
2023-01-18T07:48:27.018Z,13.23
2023-01-18T07:50:58.446Z,10.55
2023-01-18T07:53:26.340Z,9.95
2023-01-18T07:55:53.278Z,14.38
2023-01-18T07:58:20.475Z,15.27
2023-01-18T08:00:47.294Z,14.93
2023-01-18T08:03:15.853Z,13.80
2023-01-18T08:05:43.997Z,9.52
2023-01-18T08:08:11.920Z,11.18
2023-01-18T08:10:39.306Z,10.52
2023-01-18T08:13:09.036Z,17.48
2023-01-18T08:15:37.165Z,18.05
2023-01-18T08:18:05.383Z,14.15
2023-01-18T08:20:32.745Z,15.93
2023-01-18T08:23:00.678Z,17.63
2023-01-18T08:25:29.785Z,11.48
2023-01-18T08:28:00.860Z,9.77
2023-01-18T08:30:33.790Z,10.65
2023-01-18T08:33:02.887Z,11.27
2023-01-18T08:35:49.677Z,11.50
2023-01-18T08:38:16.776Z,20.95
2023-01-18T08:40:43.581Z,21.35
2023-01-18T08:43:11.728Z,15.95
2023-01-18T08:45:38.416Z,18.50
2023-01-18T08:48:10.755Z,13.00
2023-01-18T08:50:39.212Z,12.98
2023-01-18T08:53:08.541Z,10.68
2023-01-18T08:55:36.560Z,13.43
2023-01-18T08:58:03.806Z,13.15
2023-01-18T09:00:30.685Z,12.55
2023-01-18T09:02:58.868Z,11.65
2023-01-18T09:05:27.097Z,12.77
2023-01-18T09:07:54.851Z,14.50
2023-01-18T09:10:22.297Z,13.30
2023-01-18T09:12:48.935Z,17.98
2023-01-18T09:15:15.709Z,19.85
2023-01-18T09:17:42.377Z,22.10
2023-01-18T09:20:11.993Z,18.98
2023-01-18T09:22:39.140Z,17.70
2023-01-18T09:25:06.274Z,14.15
2023-01-18T09:27:33.553Z,13.65
2023-01-18T09:30:00.273Z,14.02
2023-01-18T09:32:27.483Z,18.83
2023-01-18T09:34:54.857Z,15.57
2023-01-18T09:37:21.978Z,19.95
2023-01-18T09:39:52.225Z,18.10
2023-01-18T09:42:28.512Z,21.02
2023-01-18T09:44:59.781Z,24.00
2023-01-18T09:47:35.027Z,27.70
2023-01-18T09:50:13.315Z,26.80
2023-01-18T09:52:57.206Z,29.40
2023-01-18T09:55:47.662Z,25.27
2023-01-18T09:58:41.497Z,18.50
2023-01-18T10:01:16.221Z,15.88
2023-01-18T10:04:05.023Z,13.77
2023-01-18T10:06:45.846Z,14.93
2023-01-18T10:09:16.128Z,18.67
2023-01-18T10:11:47.425Z,14.52
2023-01-18T10:14:38.354Z,11.25
2023-01-18T10:17:14.516Z,12.45
2023-01-18T10:19:41.518Z,18.25
2023-01-18T10:22:38.424Z,15.98
2023-01-18T10:25:29.063Z,14.88
2023-01-18T10:27:58.874Z,16.80
2023-01-18T10:30:45.450Z,12.57
2023-01-18T10:33:25.656Z,14.73
2023-01-18T10:36:00.428Z,14.02
2023-01-18T10:38:29.349Z,13.55
2023-01-18T10:40:59.287Z,11.57
2023-01-18T10:43:28.690Z,21.90
2023-01-18T10:45:56.276Z,26.33
2023-01-18T10:48:32.337Z,17.52
2023-01-18T10:51:03.365Z,14.15
2023-01-18T10:53:36.477Z,19.13
2023-01-18T10:56:12.642Z,17.88
2023-01-18T10:58:57.671Z,16.98
2023-01-18T11:01:33.519Z,13.25
2023-01-18T11:04:22.107Z,20.48
2023-01-18T11:06:51.704Z,19.00
2023-01-18T11:09:42.709Z,16.27
2023-01-18T11:12:34.166Z,16.90
2023-01-18T11:15:22.181Z,21.10
2023-01-18T11:17:56.164Z,19.75
2023-01-18T11:20:34.180Z,16.38
2023-01-18T11:23:16.047Z,14.73
2023-01-18T11:25:51.195Z,16.65
2023-01-18T11:28:22.017Z,16.35
2023-01-18T11:30:54.109Z,18.42
2023-01-18T11:33:23.217Z,17.80
2023-01-18T11:35:54.968Z,16.23
2023-01-18T11:38:27.414Z,17.08
2023-01-18T11:41:21.031Z,15.65
2023-01-18T11:44:00.162Z,13.98
2023-01-18T11:46:38.968Z,15.73
2023-01-18T11:49:45.060Z,16.17
2023-01-18T11:52:42.303Z,14.52
2023-01-18T11:55:47.493Z,15.13
2023-01-18T11:58:25.331Z,18.85
2023-01-18T12:01:21.455Z,21.90
2023-01-18T12:04:00.434Z,19.60
2023-01-18T12:06:50.623Z,23.27
2023-01-18T12:09:22.998Z,27.38
2023-01-18T12:12:19.234Z,24.35
2023-01-18T12:15:19.283Z,23.40
2023-01-18T12:18:11.539Z,22.42
2023-01-18T12:20:45.540Z,20.00
2023-01-18T12:23:42.289Z,27.42
2023-01-18T12:26:46.599Z,28.75
2023-01-18T12:29:38.128Z,34.25
2023-01-18T12:32:23.335Z,26.75
2023-01-18T12:35:24.778Z,32.17
2023-01-18T12:38:07.115Z,24.30
2023-01-18T12:40:42.849Z,23.85
2023-01-18T12:43:35.503Z,25.27
2023-01-18T12:46:10.140Z,23.20
2023-01-18T12:48:53.001Z,32.53
2023-01-18T12:51:23.831Z,25.92
2023-01-18T12:53:53.474Z,23.35
2023-01-18T12:56:24.032Z,25.95
2023-01-18T12:58:59.466Z,24.63
2023-01-18T13:01:30.699Z,33.83
2023-01-18T13:04:06.002Z,29.05
2023-01-18T13:06:35.060Z,24.20
2023-01-18T13:09:06.533Z,22.63
2023-01-18T13:11:41.482Z,25.75
2023-01-18T13:14:14.805Z,24.00
2023-01-18T13:17:04.585Z,24.17
2023-01-18T13:20:00.151Z,25.70
2023-01-18T13:23:00.396Z,30.98
2023-01-18T13:25:32.272Z,26.05
2023-01-18T13:28:23.742Z,26.85
2023-01-18T13:31:01.853Z,27.42
2023-01-18T13:33:37.505Z,28.60
2023-01-18T13:36:14.177Z,32.05
2023-01-18T13:38:54.591Z,26.25
2023-01-18T13:41:26.899Z,23.98
2023-01-18T13:44:04.211Z,26.70
2023-01-18T13:46:35.206Z,26.55
2023-01-18T13:49:43.501Z,28.13
2023-01-18T13:52:30.381Z,23.73
2023-01-18T13:54:58.564Z,24.95
2023-01-18T13:57:25.221Z,29.13
2023-01-18T13:59:52.295Z,29.63
2023-01-18T14:02:27.732Z,28.77
2023-01-18T14:05:06.369Z,27.13
2023-01-18T14:07:44.171Z,28.05
2023-01-18T14:10:36.300Z,25.48
2023-01-18T14:13:05.971Z,24.98
2023-01-18T14:15:53.028Z,35.83
2023-01-18T14:18:26.682Z,30.83
2023-01-18T14:21:11.914Z,29.35
2023-01-18T14:23:45.918Z,29.92
2023-01-18T14:26:19.794Z,29.65
2023-01-18T14:28:51.619Z,26.67
2023-01-18T14:31:32.661Z,30.10
2023-01-18T14:34:34.995Z,28.40
2023-01-18T14:37:03.631Z,31.98
2023-01-18T14:39:32.477Z,38.40
2023-01-18T14:42:04.975Z,33.53
2023-01-18T14:44:56.846Z,34.85
2023-01-18T14:47:28.906Z,26.67
2023-01-18T14:49:55.732Z,26.70
2023-01-18T14:52:26.868Z,29.33
2023-01-18T14:54:55.545Z,29.90
2023-01-18T14:57:23.751Z,27.65
2023-01-18T14:59:53.387Z,30.73
2023-01-18T15:02:24.806Z,24.50
2023-01-18T15:04:52.414Z,28.80
2023-01-18T15:07:30.718Z,26.98
2023-01-18T15:09:58.577Z,32.22
2023-01-18T15:12:31.259Z,33.13
2023-01-18T15:15:06.503Z,25.40
2023-01-18T15:17:35.571Z,29.65
2023-01-18T15:20:20.507Z,22.00
2023-01-18T15:22:50.590Z,24.20
2023-01-18T15:25:26.698Z,27.88
2023-01-18T15:27:54.441Z,25.70
2023-01-18T15:30:23.819Z,26.08
2023-01-18T15:32:58.129Z,24.85
2023-01-18T15:35:25.805Z,26.65
2023-01-18T15:37:52.583Z,22.58
2023-01-18T15:40:19.337Z,22.90
2023-01-18T15:42:51.530Z,24.17
2023-01-18T15:45:30.542Z,20.27
2023-01-18T15:48:00.778Z,24.55
2023-01-18T15:50:44.335Z,27.50
2023-01-18T15:53:38.544Z,26.50
2023-01-18T15:56:14.728Z,27.02
2023-01-18T15:58:44.593Z,30.17
2023-01-18T16:01:15.810Z,23.33
2023-01-18T16:03:48.205Z,27.27
2023-01-18T16:06:22.717Z,18.23
2023-01-18T16:09:11.909Z,17.80
2023-01-18T16:11:46.386Z,16.23
2023-01-18T16:14:28.290Z,14.85
2023-01-18T16:16:57.154Z,20.17
2023-01-18T16:19:28.355Z,15.05
2023-01-18T16:22:01.506Z,14.83
2023-01-18T16:24:45.688Z,18.48
2023-01-18T16:27:21.725Z,15.45
2023-01-18T16:29:56.038Z,15.50
2023-01-18T16:32:27.591Z,16.75
2023-01-18T16:34:59.761Z,16.98
2023-01-18T16:37:26.927Z,17.33
2023-01-18T16:39:55.441Z,21.85
2023-01-18T16:42:29.551Z,19.25
2023-01-18T16:45:04.159Z,27.33
2023-01-18T16:47:30.799Z,34.80
2023-01-18T16:49:59.202Z,23.20
2023-01-18T16:52:26.261Z,23.83
2023-01-18T16:54:52.905Z,23.25
2023-01-18T16:57:21.694Z,26.85
2023-01-18T16:59:49.150Z,25.52
2023-01-18T17:02:16.046Z,32.85
2023-01-18T17:04:44.779Z,35.80
2023-01-18T17:07:11.500Z,33.92
2023-01-18T17:09:47.860Z,35.30
2023-01-18T17:12:15.798Z,24.23
2023-01-18T17:14:42.462Z,29.10
2023-01-18T17:17:10.404Z,26.80
2023-01-18T17:19:37.927Z,28.02
2023-01-18T17:22:04.996Z,25.05
2023-01-18T17:24:31.692Z,27.75
2023-01-18T17:26:58.391Z,25.30
2023-01-18T17:29:25.131Z,23.95
2023-01-18T17:31:52.974Z,29.15
2023-01-18T17:36:50.254Z,44.30
2023-01-18T17:39:17.136Z,35.13
2023-01-18T17:41:43.989Z,35.45
2023-01-18T17:44:10.664Z,35.22
2023-01-18T17:46:37.525Z,25.58
2023-01-18T17:49:04.621Z,32.53
2023-01-18T17:51:31.378Z,31.98
2023-01-18T17:54:00.828Z,32.45
2023-01-18T17:56:28.849Z,28.98
2023-01-18T17:58:55.601Z,32.22
2023-01-18T18:01:22.809Z,45.72
2023-01-18T18:03:52.162Z,31.95
2023-01-18T18:06:30.322Z,29.80
2023-01-18T18:08:57.822Z,39.70
2023-01-18T18:11:24.694Z,28.13
2023-01-18T18:13:51.397Z,23.40
2023-01-18T18:16:18.773Z,28.10
2023-01-18T18:18:46.111Z,23.40
2023-01-18T18:21:13.156Z,27.40
2023-01-18T18:23:39.894Z,24.48
2023-01-18T18:26:06.677Z,21.73
2023-01-18T18:28:34.089Z,37.33
2023-01-18T18:31:03.907Z,28.88
2023-01-18T18:33:30.638Z,38.78
2023-01-18T18:35:57.951Z,28.55
2023-01-18T18:38:26.572Z,31.40
2023-01-18T18:40:54.449Z,27.35
2023-01-18T18:43:21.387Z,23.98
2023-01-18T18:45:48.187Z,24.38
2023-01-18T18:48:14.919Z,21.48
2023-01-18T18:50:41.666Z,24.27
2023-01-18T18:53:08.433Z,22.10
2023-01-18T18:55:35.333Z,25.05
2023-01-18T18:58:02.986Z,25.98
2023-01-18T19:00:30.145Z,26.17
2023-01-18T19:03:06.111Z,24.85
2023-01-18T19:05:34.336Z,18.70
2023-01-18T19:08:03.342Z,26.27
2023-01-18T19:10:30.298Z,20.27
2023-01-18T19:12:57.877Z,20.30
2023-01-18T19:15:25.343Z,23.50
2023-01-18T19:17:52.949Z,25.02
2023-01-18T19:20:20.535Z,24.48
2023-01-18T19:22:48.118Z,26.05
2023-01-18T19:25:15.092Z,29.20
2023-01-18T19:27:42.186Z,27.42
2023-01-18T19:30:12.998Z,32.53
2023-01-18T19:32:39.958Z,26.48
2023-01-18T19:35:07.243Z,26.95
2023-01-18T19:37:34.006Z,26.17
2023-01-18T19:40:00.687Z,26.33
2023-01-18T19:42:27.370Z,29.92
2023-01-18T19:44:59.204Z,30.05
2023-01-18T19:47:26.174Z,33.00
2023-01-18T19:49:55.684Z,34.92
2023-01-18T19:52:22.414Z,33.58
2023-01-18T19:54:49.179Z,42.40
2023-01-18T19:57:16.219Z,30.23
2023-01-18T19:59:42.998Z,25.08
2023-01-18T20:02:10.436Z,21.55
2023-01-18T20:04:37.747Z,25.55
2023-01-18T20:07:04.820Z,34.05
2023-01-18T20:09:42.688Z,34.45
2023-01-18T20:12:12.378Z,27.35
2023-01-18T20:14:41.879Z,46.67
2023-01-18T20:17:11.055Z,37.53
2023-01-18T20:19:37.725Z,41.92
2023-01-18T20:22:04.451Z,39.20
2023-01-18T20:24:31.264Z,26.23
2023-01-18T20:27:14.993Z,34.03
2023-01-18T20:29:43.071Z,34.05
2023-01-18T20:32:16.160Z,40.55
2023-01-18T20:34:47.448Z,41.20
2023-01-18T20:37:15.234Z,41.55
2023-01-18T20:39:42.358Z,54.60
2023-01-18T20:42:09.277Z,56.63
2023-01-18T20:44:36.034Z,40.97
2023-01-18T20:47:03.126Z,38.83
2023-01-18T20:49:38.615Z,46.67
2023-01-18T20:52:07.413Z,49.58
2023-01-18T20:54:37.724Z,49.50
2023-01-18T20:57:10.032Z,53.80
2023-01-18T20:59:36.740Z,50.30
2023-01-18T21:02:03.845Z,60.03
2023-01-18T21:04:30.837Z,46.15
2023-01-18T21:06:57.714Z,38.05
2023-01-18T21:09:25.355Z,40.28
2023-01-18T21:11:52.128Z,49.03
2023-01-18T21:14:18.795Z,42.17
2023-01-18T21:16:45.721Z,43.83
2023-01-18T21:19:12.822Z,48.03
2023-01-18T21:21:46.236Z,45.90
2023-01-18T21:24:13.226Z,58.50
2023-01-18T21:26:40.050Z,54.03
2023-01-18T21:29:06.791Z,60.20
2023-01-18T21:31:33.587Z,49.50
2023-01-18T21:34:00.409Z,41.85
2023-01-18T21:36:27.071Z,39.95
2023-01-18T21:38:53.824Z,45.38
2023-01-18T21:41:39.288Z,35.80
2023-01-18T21:44:24.619Z,28.20
2023-01-18T21:46:52.261Z,36.90
2023-01-18T21:52:44.009Z,71.35
2023-01-18T21:55:10.802Z,59.28
2023-01-18T21:57:38.681Z,56.22
2023-01-18T22:00:06.558Z,50.13
2023-01-18T22:02:34.256Z,46.97
2023-01-18T22:05:01.534Z,47.47
2023-01-18T22:07:30.117Z,44.00
2023-01-18T22:10:05.973Z,49.90
2023-01-18T22:12:35.294Z,43.50
2023-01-18T22:15:03.155Z,42.58
2023-01-18T22:17:30.417Z,53.05
2023-01-18T22:19:57.547Z,61.05
2023-01-18T22:22:24.266Z,41.15
2023-01-18T22:24:50.906Z,35.72
2023-01-18T22:27:17.625Z,39.25
2023-01-18T22:29:44.403Z,43.88
2023-01-18T22:32:11.079Z,36.20
2023-01-18T22:34:37.747Z,42.35
2023-01-18T22:37:05.608Z,48.28
2023-01-18T22:39:32.436Z,54.67
2023-01-18T22:41:59.116Z,42.80
2023-01-18T22:44:25.798Z,40.80
2023-01-18T22:46:52.503Z,38.47
2023-01-18T22:49:19.355Z,34.00
2023-01-18T22:51:46.164Z,36.55
2023-01-18T22:54:13.346Z,33.17
2023-01-18T22:56:40.077Z,30.63
2023-01-18T22:59:08.047Z,34.22
2023-01-18T23:01:35.179Z,30.48
2023-01-18T23:04:03.928Z,31.83
2023-01-18T23:06:45.488Z,31.67
2023-01-18T23:09:14.321Z,26.42
2023-01-18T23:11:41.311Z,31.63
2023-01-18T23:14:26.545Z,27.90
2023-01-18T23:17:11.888Z,27.27
2023-01-18T23:19:38.821Z,28.55
2023-01-18T23:22:08.273Z,26.67
2023-01-18T23:24:36.827Z,26.48
2023-01-18T23:27:10.035Z,22.83
2023-01-18T23:29:37.389Z,23.40
2023-01-18T23:32:04.363Z,25.13
2023-01-18T23:34:31.055Z,29.13
2023-01-18T23:36:57.745Z,25.23
2023-01-18T23:39:43.004Z,22.05
2023-01-18T23:42:28.221Z,25.85
2023-01-18T23:45:13.747Z,25.23
2023-01-18T23:47:59.441Z,27.02
2023-01-18T23:50:44.988Z,20.90
2023-01-18T23:53:31.604Z,22.17
2023-01-18T23:55:58.913Z,20.75
2023-01-18T23:58:25.718Z,20.30
